Time;durP1;ratioP1;P1;durP2;ratioP2;P2;SDS_P1;SDS_P2;PMS_P1;PMS_P2;Temp;Humidity;BMP_temperature;BMP_pressure;BME280_temperature;BME280_humidity;BME280_pressure;Samples;Min_cycle;Max_cycle;Signal;HPM_P1;HPM_P2
2020/12/22 00:02:10;;;;;;;46.37;26.87;;;3.80;88.10;;;;;;4977084;28;97129;-76
2020/12/22 00:04:36;;;;;;;51.17;26.87;;;3.80;88.00;;;;;;4979445;28;93500;-77
2020/12/22 00:07:02;;;;;;;46.30;26.63;;;3.70;88.30;;;;;;4979859;28;92415;-77
2020/12/22 00:09:28;;;;;;;46.60;26.90;;;3.70;88.30;;;;;;4961588;28;92561;-77
2020/12/22 00:11:53;;;;;;;47.87;26.43;;;3.80;88.40;;;;;;4960959;28;96602;-77
2020/12/22 00:14:19;;;;;;;52.47;27.80;;;3.80;88.00;;;;;;4976973;28;96314;-78
2020/12/22 00:16:45;;;;;;;43.33;24.87;;;3.80;88.00;;;;;;4983221;28;92435;-77
2020/12/22 00:19:11;;;;;;;46.07;25.40;;;3.70;88.50;;;;;;4979738;28;91430;-77
2020/12/22 00:21:37;;;;;;;41.67;24.40;;;3.70;88.40;;;;;;4978452;28;96488;-77
2020/12/22 00:24:03;;;;;;;48.07;26.27;;;3.70;88.50;;;;;;4961735;28;96671;-77
2020/12/22 00:26:29;;;;;;;47.00;26.07;;;3.80;88.40;;;;;;4977040;28;93048;-77
2020/12/22 00:28:55;;;;;;;43.10;26.13;;;3.80;88.30;;;;;;4961065;28;92016;-77
2020/12/22 00:31:22;;;;;;;46.73;27.50;;;3.90;88.10;;;;;;4959171;28;95974;-77
2020/12/22 00:33:48;;;;;;;44.33;27.77;;;4.00;87.80;;;;;;4976011;28;96666;-77
2020/12/22 00:36:14;;;;;;;41.97;25.87;;;4.10;87.20;;;;;;4976910;28;91912;-77
2020/12/22 00:38:42;;;;;;;42.40;25.30;;;4.10;87.10;;;;;;4993059;28;93313;-77
2020/12/22 00:41:12;;;;;;;44.20;24.57;;;4.00;87.50;;;;;;4959759;28;96095;-77
2020/12/22 00:43:40;;;;;;;44.07;25.37;;;4.00;87.80;;;;;;4976865;28;96292;-77
2020/12/22 00:46:06;;;;;;;41.40;24.07;;;4.10;87.70;;;;;;4961008;28;92657;-77
2020/12/22 00:48:31;;;;;;;41.10;23.97;;;4.10;87.20;;;;;;4976725;28;92324;-76
2020/12/22 00:50:57;;;;;;;38.67;21.97;;;4.20;86.90;;;;;;4977409;28;93748;-77
2020/12/22 00:53:23;;;;;;;36.07;20.33;;;4.20;87.40;;;;;;4976747;28;97190;-77
2020/12/22 00:55:49;;;;;;;34.60;19.50;;;4.20;87.40;;;;;;4968897;28;92037;-77
2020/12/22 00:58:15;;;;;;;29.83;18.60;;;4.30;87.60;;;;;;4960636;28;92259;-77
2020/12/22 01:00:41;;;;;;;24.30;15.57;;;4.30;88.00;;;;;;4976516;28;96451;-76
2020/12/22 01:03:07;;;;;;;21.90;14.83;;;4.30;88.40;;;;;;4977296;28;96248;-77
2020/12/22 01:05:33;;;;;;;24.90;15.30;;;4.20;88.70;;;;;;4976876;28;92077;-77
2020/12/22 01:07:59;;;;;;;23.70;15.70;;;4.20;89.00;;;;;;4978574;28;91390;-77
2020/12/22 01:10:25;;;;;;;23.37;15.47;;;4.20;89.10;;;;;;4977498;28;96094;-77
2020/12/22 01:12:53;;;;;;;27.23;15.70;;;4.20;89.00;;;;;;4959787;28;96266;-77
2020/12/22 01:15:19;;;;;;;24.93;17.10;;;4.20;89.40;;;;;;4976957;28;93023;-77
2020/12/22 01:17:45;;;;;;;26.20;16.30;;;4.20;89.30;;;;;;4960497;28;92131;-77
2020/12/22 01:20:11;;;;;;;28.27;16.70;;;4.30;89.00;;;;;;4975470;28;96611;-76
2020/12/22 01:22:37;;;;;;;34.23;20.33;;;4.20;89.00;;;;;;4960298;28;96012;-77
2020/12/22 01:25:03;;;;;;;38.20;22.50;;;4.10;89.30;;;;;;4976396;28;92252;-77
2020/12/22 01:27:29;;;;;;;37.60;21.47;;;4.10;89.40;;;;;;4959831;28;92333;-77
2020/12/22 01:29:55;;;;;;;40.93;21.80;;;4.10;89.00;;;;;;4973313;28;94702;-77
2020/12/22 01:32:20;;;;;;;43.03;24.47;;;4.00;88.70;;;;;;4975073;28;95990;-76
2020/12/22 01:34:46;;;;;;;52.93;28.10;;;3.90;88.70;;;;;;4992105;28;92421;-77
2020/12/22 01:37:13;;;;;;;46.30;27.87;;;3.90;88.60;;;;;;4959296;28;92374;-77
2020/12/22 01:39:39;;;;;;;46.47;26.27;;;3.80;89.00;;;;;;4975863;28;96477;-77
2020/12/22 01:42:10;;;;;;;45.97;25.83;;;3.80;89.10;;;;;;4976920;28;93635;-77
2020/12/22 01:44:36;;;;;;;43.83;26.67;;;3.80;89.30;;;;;;4959172;28;91965;-77
2020/12/22 01:47:02;;;;;;;45.10;25.23;;;3.80;89.30;;;;;;4960686;28;92145;-77
2020/12/22 01:49:28;;;;;;;38.80;22.47;;;3.90;89.10;;;;;;4977028;28;93928;-77
2020/12/22 01:51:58;;;;;;;40.80;24.47;;;3.90;89.40;;;;;;4960625;28;96157;-77
2020/12/22 01:54:26;;;;;;;43.10;24.47;;;4.00;89.00;;;;;;4975891;28;92539;-77
2020/12/22 01:56:52;;;;;;;41.53;24.63;;;4.00;89.00;;;;;;4979061;28;91492;-77
2020/12/22 01:59:18;;;;;;;44.73;25.53;;;4.00;89.20;;;;;;4977557;28;93662;-77
2020/12/22 02:01:44;;;;;;;45.20;24.37;;;4.10;89.00;;;;;;4975600;28;93450;-77
2020/12/22 02:04:11;;;;;;;39.13;22.97;;;4.00;88.90;;;;;;4957745;28;93166;-77
2020/12/22 02:06:38;;;;;;;39.37;23.33;;;4.00;89.60;;;;;;4977226;28;92720;-77
2020/12/22 02:09:06;;;;;;;40.27;24.10;;;4.10;89.30;;;;;;4976934;28;93289;-78
2020/12/22 02:11:33;;;;;;;40.03;23.90;;;4.10;89.30;;;;;;4974735;28;93798;-77
2020/12/22 02:14:00;;;;;;;36.27;22.30;;;4.10;89.40;;;;;;4958452;28;92105;-77
2020/12/22 02:16:27;;;;;;;45.57;26.47;;;4.10;89.10;;;;;;4975391;28;92212;-77
2020/12/22 02:18:55;;;;;;;46.27;26.17;;;4.10;88.60;;;;;;4975408;28;96476;-77
2020/12/22 02:21:21;;;;;;;45.43;27.37;;;4.00;88.70;;;;;;4975750;28;95837;-77
2020/12/22 02:23:48;;;;;;;49.53;27.93;;;4.00;88.60;;;;;;4975932;28;92201;-77
2020/12/22 02:26:20;;;;;;;45.63;27.53;;;4.00;88.60;;;;;;4976630;28;92138;-77
2020/12/22 02:28:46;;;;;;;43.65;26.48;;;3.90;88.80;;;;;;4958322;28;97808;-77
2020/12/22 02:31:12;;;;;;;48.77;28.20;;;3.80;89.00;;;;;;4957175;28;97042;-77
2020/12/22 02:33:38;;;;;;;54.07;28.33;;;3.70;89.50;;;;;;4974905;28;91967;-77
2020/12/22 02:36:09;;;;;;;50.13;28.60;;;3.70;89.90;;;;;;4958521;28;92133;-77
2020/12/22 02:38:34;;;;;;;48.13;27.63;;;3.70;90.10;;;;;;4975681;28;94261;-77
2020/12/22 02:41:00;;;;;;;50.80;28.80;;;3.60;90.20;;;;;;4975299;28;92516;-77
2020/12/22 02:43:26;;;;;;;49.57;28.60;;;3.60;90.20;;;;;;4957977;28;92354;-77
2020/12/22 02:45:52;;;;;;;50.27;28.87;;;3.70;90.00;;;;;;4978655;28;91635;-77
2020/12/22 02:48:17;;;;;;;43.37;25.83;;;3.70;90.00;;;;;;4960604;28;96826;-77
2020/12/22 02:50:43;;;;;;;45.47;26.90;;;3.60;90.10;;;;;;4961634;28;95696;-77
2020/12/22 02:53:09;;;;;;;46.13;26.97;;;3.70;90.30;;;;;;4978964;28;93007;-77
2020/12/22 02:55:35;;;;;;;42.43;25.53;;;3.70;90.30;;;;;;4961347;28;92597;-77
2020/12/22 02:58:01;;;;;;;42.10;25.43;;;3.60;90.30;;;;;;4979352;28;93103;-77
2020/12/22 03:00:27;;;;;;;42.23;24.00;;;3.70;90.50;;;;;;4960793;28;96870;-77
2020/12/22 03:02:53;;;;;;;40.43;23.23;;;3.70;90.60;;;;;;4978235;28;91986;-77
2020/12/22 03:05:19;;;;;;;36.70;22.07;;;3.70;90.70;;;;;;4977040;28;92186;-77
2020/12/22 03:07:45;;;;;;;38.07;22.63;;;3.80;90.80;;;;;;4961176;28;96162;-78
2020/12/22 03:10:13;;;;;;;36.80;22.93;;;3.80;90.90;;;;;;4961845;28;96508;-77
2020/12/22 03:12:39;;;;;;;44.40;22.90;;;3.90;90.60;;;;;;4974923;28;92521;-77
2020/12/22 03:15:06;;;;;;;36.50;23.37;;;3.90;90.40;;;;;;4973905;28;92280;-77
2020/12/22 03:17:33;;;;;;;35.63;22.03;;;3.90;90.40;;;;;;4977177;28;97474;-77
2020/12/22 03:20:00;;;;;;;38.90;21.77;;;3.90;90.40;;;;;;4977742;28;94161;-77
2020/12/22 03:22:26;;;;;;;35.43;21.30;;;3.90;90.60;;;;;;4977714;28;92370;-77
2020/12/22 03:24:51;;;;;;;34.90;21.00;;;3.90;90.70;;;;;;4978247;28;92131;-77
2020/12/22 03:27:17;;;;;;;39.47;20.87;;;3.90;90.50;;;;;;4978597;28;94861;-77
2020/12/22 03:29:43;;;;;;;33.10;19.90;;;4.10;90.30;;;;;;4977943;28;96493;-77
2020/12/22 03:32:09;;;;;;;28.43;17.77;;;4.20;90.00;;;;;;4979856;28;92378;-77
2020/12/22 03:34:35;;;;;;;24.83;16.27;;;4.30;89.80;;;;;;4978829;28;91368;-77
2020/12/22 03:37:01;;;;;;;26.13;15.20;;;4.30;89.60;;;;;;4995050;28;93717;-77
2020/12/22 03:39:27;;;;;;;27.20;15.33;;;4.40;88.80;;;;;;4978169;28;94496;-77
2020/12/22 03:41:54;;;;;;;24.87;16.47;;;4.40;88.30;;;;;;4962281;28;92943;-77
2020/12/22 03:44:19;;;;;;;29.63;17.40;;;4.50;88.20;;;;;;4957849;28;92190;-77
2020/12/22 03:46:49;;;;;;;22.93;15.53;;;4.50;88.30;;;;;;4975466;28;96472;-77
2020/12/22 03:49:16;;;;;;;28.43;15.60;;;4.50;88.40;;;;;;4959688;28;96390;-77
2020/12/22 03:51:42;;;;;;;27.43;14.93;;;4.50;88.30;;;;;;4960653;28;92710;-77
2020/12/22 03:54:08;;;;;;;25.03;15.77;;;4.40;88.30;;;;;;4960241;28;92155;-77
2020/12/22 03:56:34;;;;;;;24.40;15.30;;;4.40;88.20;;;;;;4974844;28;96646;-77
2020/12/22 03:59:00;;;;;;;23.00;15.63;;;4.40;88.00;;;;;;4960651;28;96331;-77
2020/12/22 04:01:25;;;;;;;24.53;15.10;;;4.40;87.80;;;;;;4992633;28;93407;-77
2020/12/22 04:03:51;;;;;;;26.27;15.87;;;4.40;88.10;;;;;;4976871;28;92640;-77
2020/12/22 04:06:17;;;;;;;24.07;14.73;;;4.40;87.90;;;;;;4975058;28;97293;-77
2020/12/22 04:08:43;;;;;;;24.63;15.33;;;4.40;88.00;;;;;;4959743;28;97323;-77
2020/12/22 04:11:08;;;;;;;25.00;15.13;;;4.40;88.00;;;;;;4976745;28;92402;-77
2020/12/22 04:13:35;;;;;;;23.77;14.37;;;4.30;87.90;;;;;;4959364;28;92576;-77
2020/12/22 04:16:05;;;;;;;24.73;15.43;;;4.40;88.00;;;;;;4976936;28;93473;-77
2020/12/22 04:18:31;;;;;;;23.37;14.27;;;4.40;88.00;;;;;;4976618;28;95556;-77
2020/12/22 04:20:58;;;;;;;23.80;14.73;;;4.40;88.00;;;;;;4961336;28;92103;-77
2020/12/22 04:23:25;;;;;;;24.00;14.77;;;4.50;87.50;;;;;;4978421;28;91366;-77
2020/12/22 04:25:51;;;;;;;22.97;14.43;;;4.50;87.20;;;;;;4978187;28;93741;-77
2020/12/22 04:28:17;;;;;;;19.93;13.07;;;4.50;87.10;;;;;;4976841;28;93061;-77
2020/12/22 04:30:43;;;;;;;21.97;13.60;;;4.50;87.40;;;;;;4992864;28;92879;-77
2020/12/22 04:33:10;;;;;;;25.27;16.27;;;4.50;87.50;;;;;;4960043;28;92270;-77
2020/12/22 04:35:36;;;;;;;18.80;12.77;;;4.50;87.40;;;;;;4958672;28;96723;-78
2020/12/22 04:38:04;;;;;;;22.77;13.07;;;4.50;87.30;;;;;;4976284;28;93967;-77
2020/12/22 04:40:30;;;;;;;22.93;14.07;;;4.40;87.50;;;;;;4962677;28;92519;-77
2020/12/22 04:42:58;;;;;;;23.77;14.13;;;4.40;88.00;;;;;;4959827;28;92718;-77
2020/12/22 04:45:29;;;;;;;26.53;14.50;;;4.40;88.30;;;;;;4974792;28;95764;-77
2020/12/22 04:47:56;;;;;;;19.50;13.70;;;4.40;88.10;;;;;;4977421;28;93305;-77
2020/12/22 04:50:22;;;;;;;23.97;14.77;;;4.50;87.80;;;;;;4976435;28;92581;-77
2020/12/22 04:52:50;;;;;;;21.53;12.90;;;4.50;87.60;;;;;;4961036;28;92218;-77
2020/12/22 04:55:18;;;;;;;28.67;16.77;;;4.50;88.10;;;;;;4975408;28;96976;-77
2020/12/22 04:57:50;;;;;;;35.47;21.07;;;4.60;87.60;;;;;;4976213;28;97260;-77
2020/12/22 05:00:19;;;;;;;38.00;21.58;;;4.60;87.30;;;;;;4976866;28;91987;-77
2020/12/22 05:02:45;;;;;;;27.63;15.57;;;4.70;87.10;;;;;;4975439;28;92297;-77
2020/12/22 05:05:12;;;;;;;21.23;13.73;;;4.70;86.80;;;;;;4975658;28;92811;-77
2020/12/22 05:07:39;;;;;;;22.77;14.40;;;4.60;87.30;;;;;;4974763;28;93802;-77
2020/12/22 05:10:10;;;;;;;21.00;13.10;;;4.70;87.50;;;;;;4992692;28;91939;-77
2020/12/22 05:12:39;;;;;;;19.87;13.50;;;4.70;87.30;;;;;;4975875;28;91886;-77
2020/12/22 05:15:06;;;;;;;18.90;12.70;;;4.70;87.40;;;;;;4959163;28;96472;-77
2020/12/22 05:17:44;;;;;;;20.83;13.20;;;4.80;87.10;;;;;;4970375;28;96539;-77
2020/12/22 05:20:13;;;;;;;21.37;13.57;;;4.70;87.60;;;;;;4969202;28;93140;-77
2020/12/22 05:22:39;;;;;;;20.90;14.17;;;4.80;87.40;;;;;;4959276;28;92120;-77
2020/12/22 05:25:06;;;;;;;17.63;12.07;;;4.80;87.30;;;;;;4976889;28;93406;-77
2020/12/22 05:27:33;;;;;;;16.43;11.33;;;4.90;87.80;;;;;;4976134;28;92359;-77
2020/12/22 05:30:04;;;;;;;17.33;10.63;;;5.00;88.10;;;;;;4975733;28;91932;-76
2020/12/22 05:32:33;;;;;;;16.52;9.85;;;5.10;87.80;;;;;;4959639;28;92031;-77
2020/12/22 05:34:59;;;;;;;38.97;14.77;;;5.20;87.20;;;;;;4976960;28;93312;-77
2020/12/22 05:37:26;;;;;;;42.73;17.97;;;5.30;86.50;;;;;;4977474;28;92953;-77
2020/12/22 05:39:52;;;;;;;35.03;15.70;;;5.40;86.30;;;;;;4960483;28;92276;-77
2020/12/22 05:42:19;;;;;;;25.27;14.03;;;5.50;86.10;;;;;;4978095;28;92734;-76
2020/12/22 05:44:50;;;;;;;21.50;13.03;;;5.50;86.00;;;;;;4976588;28;97370;-77
2020/12/22 05:47:18;;;;;;;19.60;11.97;;;5.50;85.70;;;;;;4976379;28;96689;-77
2020/12/22 05:49:50;;;;;;;18.87;11.47;;;5.50;85.70;;;;;;4976085;28;92064;-77
2020/12/22 05:52:19;;;;;;;22.37;14.10;;;5.50;85.70;;;;;;4958692;28;92401;-77
2020/12/22 05:54:46;;;;;;;21.97;13.27;;;5.50;85.50;;;;;;4958397;28;97056;-77
2020/12/22 05:57:12;;;;;;;24.27;13.40;;;5.50;85.50;;;;;;4958622;28;96388;-77
2020/12/22 05:59:38;;;;;;;16.23;11.47;;;5.50;85.70;;;;;;4975225;28;92076;-77
2020/12/22 06:02:04;;;;;;;16.37;11.43;;;5.50;85.70;;;;;;4976172;28;91281;-77
2020/12/22 06:04:30;;;;;;;23.13;15.40;;;5.60;85.60;;;;;;4973823;28;96047;-77
2020/12/22 06:06:56;;;;;;;59.10;26.23;;;5.60;85.50;;;;;;4974901;28;95835;-77
2020/12/22 06:09:22;;;;;;;34.43;15.97;;;5.70;85.50;;;;;;4974212;28;93553;-77
2020/12/22 06:11:51;;;;;;;21.27;12.33;;;5.70;85.40;;;;;;4976937;28;92121;-76
2020/12/22 06:14:24;;;;;;;34.63;16.17;;;5.70;85.80;;;;;;4954517;28;94286;-77
2020/12/22 06:16:51;;;;;;;42.50;21.17;;;5.80;86.40;;;;;;4967794;28;92975;-77
2020/12/22 06:19:18;;;;;;;40.77;20.83;;;5.80;86.60;;;;;;4992107;28;92014;-77
2020/12/22 06:21:44;;;;;;;25.93;12.63;;;5.80;87.40;;;;;;4961996;28;92114;-77
2020/12/22 06:24:13;;;;;;;29.47;15.70;;;5.80;88.10;;;;;;4983076;28;96982;-77
2020/12/22 06:26:39;;;;;;;39.73;20.70;;;5.80;88.40;;;;;;4979066;28;92945;-77
2020/12/22 06:29:24;;;;;;;20.77;13.23;;;5.80;88.80;;;;;;4978562;28;92271;-77
2020/12/22 06:31:50;;;;;;;26.80;16.03;;;5.80;89.50;;;;;;4994579;28;92215;-76
2020/12/22 06:34:26;;;;;;;17.10;9.70;;;5.80;90.20;;;;;;4977527;28;94083;-77
2020/12/22 06:37:00;;;;;;;16.67;11.00;;;5.80;90.40;;;;;;4962521;28;97069;-77
2020/12/22 06:39:46;;;;;;;12.20;8.70;;;5.80;90.50;;;;;;4960991;28;92022;-76
2020/12/22 06:42:45;;;;;;;15.40;9.20;;;5.80;90.50;;;;;;4980422;28;92089;-76
2020/12/22 06:45:35;;;;;;;18.00;11.17;;;5.70;90.90;;;;;;4978363;28;93685;-77
2020/12/22 06:48:01;;;;;;;18.20;9.60;;;5.70;91.10;;;;;;4961540;28;96217;-76
2020/12/22 06:50:47;;;;;;;18.23;10.87;;;5.70;90.80;;;;;;4978449;28;92046;-77
2020/12/22 06:53:34;;;;;;;13.20;8.30;;;5.70;90.90;;;;;;4978595;28;91229;-77
2020/12/22 06:56:00;;;;;;;15.00;10.17;;;5.70;91.00;;;;;;4979848;28;93774;-77
2020/12/22 06:58:42;;;;;;;14.47;9.57;;;5.70;90.80;;;;;;4961000;28;96488;-77
2020/12/22 07:01:46;;;;;;;14.30;9.05;;;5.70;91.10;;;;;;4978379;28;93518;-77
2020/12/22 07:04:11;;;;;;;15.00;9.00;;;5.70;91.10;;;;;;4948130;28;92609;-77
2020/12/22 07:06:47;;;;;;;15.33;8.23;;;5.70;91.20;;;;;;4979504;28;93334;-76
2020/12/22 07:09:21;;;;;;;18.57;10.73;;;5.70;91.20;;;;;;4962401;28;96451;-77
2020/12/22 07:11:48;;;;;;;13.07;8.27;;;5.70;91.70;;;;;;4978152;28;92256;-76
2020/12/22 07:14:16;;;;;;;12.83;8.37;;;5.70;91.50;;;;;;4960613;28;92185;-77
2020/12/22 07:17:03;;;;;;;15.57;8.40;;;5.70;91.70;;;;;;4993283;28;96640;-77
2020/12/22 07:19:30;;;;;;;13.13;6.87;;;5.80;91.60;;;;;;4966276;28;96210;-77
2020/12/22 07:22:05;;;;;;;13.20;7.53;;;5.80;91.70;;;;;;4978834;28;92159;-77
2020/12/22 07:24:34;;;;;;;12.70;7.93;;;5.80;91.80;;;;;;4972284;28;92447;-77
2020/12/22 07:27:01;;;;;;;12.47;7.47;;;5.80;91.90;;;;;;4975494;28;94202;-77
2020/12/22 07:29:27;;;;;;;11.63;7.10;;;5.80;92.10;;;;;;4978469;28;93839;-77
2020/12/22 07:31:52;;;;;;;10.63;7.03;;;5.90;92.00;;;;;;4961520;28;92672;-77
2020/12/22 07:34:19;;;;;;;12.77;7.23;;;5.90;92.20;;;;;;4961076;28;92315;-77
2020/12/22 07:36:46;;;;;;;11.53;7.37;;;5.90;91.90;;;;;;4961073;28;94644;-77
2020/12/22 07:39:14;;;;;;;16.27;9.20;;;5.90;92.00;;;;;;4978041;28;92365;-77
2020/12/22 07:41:40;;;;;;;11.83;7.43;;;5.90;92.10;;;;;;4978710;28;92076;-77
2020/12/22 07:44:15;;;;;;;9.93;6.83;;;6.00;92.00;;;;;;4960965;28;91400;-77
2020/12/22 07:46:42;;;;;;;11.07;6.83;;;6.00;91.90;;;;;;4991923;28;96364;-77
2020/12/22 07:49:09;;;;;;;12.27;8.17;;;6.00;92.00;;;;;;4990271;28;93169;-77
2020/12/22 07:51:36;;;;;;;11.63;7.30;;;6.00;91.90;;;;;;4975379;28;93326;-77
2020/12/22 07:54:03;;;;;;;11.80;7.73;;;6.00;91.80;;;;;;4975440;28;93041;-77
2020/12/22 07:56:34;;;;;;;11.90;7.13;;;6.00;92.10;;;;;;4975506;28;92085;-77
2020/12/22 07:59:03;;;;;;;11.60;6.90;;;6.00;92.10;;;;;;4993750;28;93016;-77
2020/12/22 08:01:50;;;;;;;16.90;7.40;;;6.00;92.30;;;;;;4974520;28;92216;-77
2020/12/22 08:04:17;;;;;;;12.97;6.93;;;6.00;92.40;;;;;;4975182;28;92347;-77
2020/12/22 08:07:00;;;;;;;10.80;6.40;;;6.00;92.30;;;;;;4990782;28;97270;-80
2020/12/22 08:09:30;;;;;;;10.03;6.20;;;6.00;92.50;;;;;;4974927;28;94922;-77
2020/12/22 08:11:59;;;;;;;12.13;7.37;;;6.00;92.60;;;;;;4969676;28;92331;-76
2020/12/22 08:14:26;;;;;;;10.23;6.47;;;6.00;92.60;;;;;;4976546;28;92626;-77
2020/12/22 08:16:58;;;;;;;9.90;6.07;;;6.00;92.50;;;;;;4966103;28;97047;-77
2020/12/22 08:19:27;;;;;;;11.17;7.53;;;5.90;92.70;;;;;;4963973;28;94045;-77
2020/12/22 08:21:55;;;;;;;12.13;6.83;;;5.90;92.60;;;;;;4971090;28;92401;-77
2020/12/22 08:24:22;;;;;;;10.33;7.13;;;6.00;92.70;;;;;;4992368;28;92344;-77
2020/12/22 08:26:49;;;;;;;9.83;6.40;;;6.00;92.70;;;;;;4965613;28;93273;-75
2020/12/22 08:29:16;;;;;;;10.07;6.83;;;6.00;92.70;;;;;;4976920;28;93094;-76
2020/12/22 08:31:43;;;;;;;10.57;6.73;;;6.10;92.40;;;;;;4972437;28;92647;-77
2020/12/22 08:34:11;;;;;;;11.17;7.20;;;6.10;92.00;;;;;;4970582;28;91405;-76
2020/12/22 08:36:37;;;;;;;10.40;6.43;;;6.10;92.40;;;;;;4972550;28;95198;-76
2020/12/22 08:39:15;;;;;;;13.17;7.33;;;6.10;92.30;;;;;;4960201;28;96324;-77
2020/12/22 08:41:42;;;;;;;10.17;7.20;;;6.20;92.30;;;;;;4989533;28;93090;-77
2020/12/22 08:44:10;;;;;;;11.13;6.77;;;6.30;92.10;;;;;;4971637;28;92207;-77
2020/12/22 08:46:37;;;;;;;12.10;6.60;;;6.30;92.20;;;;;;4988076;28;96799;-77
2020/12/22 08:49:08;;;;;;;10.10;6.67;;;6.30;91.90;;;;;;4974208;28;96576;-77
2020/12/22 08:51:34;;;;;;;15.97;8.37;;;6.30;91.80;;;;;;4989076;28;92732;-77
2020/12/22 08:54:01;;;;;;;13.23;7.83;;;6.30;91.90;;;;;;4974236;28;92586;-76
2020/12/22 08:56:27;;;;;;;22.07;13.70;;;6.30;92.20;;;;;;4972716;28;92691;-76
2020/12/22 08:59:01;;;;;;;15.37;10.30;;;6.30;92.40;;;;;;4957998;28;96729;-76
2020/12/22 09:01:41;;;;;;;14.40;8.07;;;6.30;92.20;;;;;;4975067;28;92282;-76
2020/12/22 09:04:09;;;;;;;29.07;15.50;;;6.40;92.30;;;;;;4969853;28;92280;-77
2020/12/22 09:06:36;;;;;;;16.67;9.17;;;6.40;92.50;;;;;;4978004;28;97401;-81
2020/12/22 09:09:04;;;;;;;16.77;12.03;;;6.50;92.20;;;;;;4979891;28;93647;-80
2020/12/22 09:11:30;;;;;;;14.90;8.77;;;6.50;92.40;;;;;;4977155;28;92203;-79
2020/12/22 09:14:18;;;;;;;13.70;8.33;;;6.50;92.20;;;;;;4992182;28;92159;-79
2020/12/22 09:16:56;;;;;;;11.27;7.23;;;6.60;92.50;;;;;;4970624;28;96236;-78
2020/12/22 09:19:39;;;;;;;14.70;8.43;;;6.60;92.70;;;;;;4976773;28;93384;-79
2020/12/22 09:22:05;;;;;;;16.30;8.73;;;6.60;92.80;;;;;;5005632;28;91855;-80
2020/12/22 09:24:34;;;;;;;11.07;7.10;;;6.60;92.80;;;;;;4983436;28;91441;-80
2020/12/22 09:27:02;;;;;;;11.00;7.30;;;6.70;92.80;;;;;;4994205;28;93267;-80
2020/12/22 09:29:29;;;;;;;10.97;7.33;;;6.70;92.90;;;;;;4979094;28;95250;-80
2020/12/22 09:31:56;;;;;;;11.77;6.60;;;6.80;93.00;;;;;;4980333;28;93511;-80
2020/12/22 09:34:23;;;;;;;9.60;5.80;;;6.80;93.00;;;;;;4963315;28;92502;-80
2020/12/22 09:36:53;;;;;;;10.17;5.50;;;6.80;93.00;;;;;;4973188;28;93670;-79
2020/12/22 09:39:19;;;;;;;8.17;5.53;;;6.90;93.10;;;;;;4985558;28;96314;-79
2020/12/22 09:41:45;;;;;;;9.63;6.47;;;6.90;92.80;;;;;;4971174;28;91965;-79
2020/12/22 09:44:12;;;;;;;13.40;6.07;;;6.90;92.90;;;;;;4976592;28;92708;-76
2020/12/22 09:46:38;;;;;;;9.30;5.47;;;7.00;92.80;;;;;;4955904;28;96621;-78
2020/12/22 09:49:04;;;;;;;8.50;5.30;;;7.10;92.50;;;;;;4971756;28;95888;-78
2020/12/22 09:51:30;;;;;;;13.63;6.57;;;7.10;92.20;;;;;;4971103;28;93257;-78
2020/12/22 09:53:56;;;;;;;9.37;5.07;;;7.10;92.30;;;;;;4977012;28;92227;-78
2020/12/22 09:56:22;;;;;;;8.03;5.00;;;7.10;92.00;;;;;;4994391;28;97789;-78
2020/12/22 09:58:48;;;;;;;9.13;5.70;;;7.20;91.50;;;;;;4978465;28;97551;-78
2020/12/22 10:01:20;;;;;;;9.23;5.00;;;7.10;91.80;;;;;;4979481;28;92067;-78
2020/12/22 10:03:46;;;;;;;7.30;4.80;;;7.20;91.70;;;;;;4993194;28;92078;-78
2020/12/22 10:06:15;;;;;;;8.43;5.30;;;7.20;91.70;;;;;;4979684;28;93530;-78
2020/12/22 10:08:41;;;;;;;7.33;4.80;;;7.30;91.80;;;;;;4970355;28;92412;-78
2020/12/22 10:11:07;;;;;;;8.43;4.80;;;7.20;91.80;;;;;;4980625;28;91976;-79
2020/12/22 10:13:32;;;;;;;8.33;5.70;;;7.30;92.00;;;;;;4969244;28;91698;-78
2020/12/22 10:16:00;;;;;;;12.17;7.57;;;7.30;92.00;;;;;;4977249;28;96674;-78
2020/12/22 10:18:26;;;;;;;11.73;7.73;;;7.30;92.20;;;;;;4979141;28;93337;-78
2020/12/22 10:20:53;;;;;;;10.13;7.43;;;7.30;92.30;;;;;;4973570;28;93610;-78
2020/12/22 10:23:18;;;;;;;7.47;4.63;;;7.30;92.50;;;;;;4971756;28;91915;-78
2020/12/22 10:25:44;;;;;;;12.07;7.47;;;7.30;92.30;;;;;;4979204;28;96186;-81
2020/12/22 10:28:10;;;;;;;8.97;6.77;;;7.40;92.30;;;;;;4962474;28;96214;-78
2020/12/22 10:30:36;;;;;;;10.33;6.20;;;7.40;92.30;;;;;;4996059;28;92125;-77
2020/12/22 10:33:02;;;;;;;5.40;3.63;;;7.40;92.70;;;;;;4979294;28;92353;-77
2020/12/22 10:35:28;;;;;;;25.40;6.10;;;7.40;92.80;;;;;;4974206;28;92695;-77
2020/12/22 10:37:53;;;;;;;6.43;3.97;;;7.40;92.90;;;;;;4980227;28;95997;-76
2020/12/22 10:40:19;;;;;;;8.20;5.33;;;7.40;93.00;;;;;;4980903;28;92377;-79
2020/12/22 10:42:45;;;;;;;10.77;6.70;;;7.40;93.20;;;;;;4979088;28;92483;-77
2020/12/22 10:45:11;;;;;;;12.10;7.90;;;7.50;93.30;;;;;;4976689;28;94018;-76
2020/12/22 10:47:37;;;;;;;25.97;16.83;;;7.50;93.50;;;;;;4977406;28;96915;-77
2020/12/22 10:50:03;;;;;;;13.50;7.10;;;7.50;93.80;;;;;;4979141;28;92117;-79
2020/12/22 10:52:29;;;;;;;13.17;7.50;;;7.50;94.00;;;;;;4978968;28;92708;-78
2020/12/22 10:54:58;;;;;;;13.67;8.97;;;7.50;93.90;;;;;;4978713;28;96330;-79
2020/12/22 10:57:24;;;;;;;7.77;5.50;;;7.60;93.90;;;;;;4978327;28;93013;-79
2020/12/22 10:59:49;;;;;;;12.20;7.83;;;7.60;93.70;;;;;;4979858;28;92022;-78
2020/12/22 11:02:15;;;;;;;9.33;6.77;;;7.70;93.70;;;;;;4978217;28;91513;-76
2020/12/22 11:04:45;;;;;;;28.03;15.60;;;7.70;93.70;;;;;;4973705;28;96482;-76
2020/12/22 11:07:56;;;;;;;20.27;10.97;;;7.80;93.60;;;;;;4989755;28;96155;-78
2020/12/22 11:09:57;;;;;;;28.83;16.33;;;7.80;93.30;;;;;;4967462;28;93068;-78
2020/12/22 11:12:23;;;;;;;21.17;11.13;;;7.80;93.40;;;;;;4985153;28;92368;-77
2020/12/22 11:14:48;;;;;;;17.40;10.50;;;8.00;93.20;;;;;;4975207;28;93674;-79
2020/12/22 11:17:15;;;;;;;17.00;10.13;;;8.00;93.10;;;;;;4976165;28;92475;-79
2020/12/22 11:19:41;;;;;;;14.07;9.23;;;8.00;93.20;;;;;;4973750;28;92431;-78
2020/12/22 11:22:06;;;;;;;12.33;9.40;;;8.10;93.10;;;;;;4975745;28;92605;-78
2020/12/22 11:24:32;;;;;;;12.07;8.30;;;8.10;93.10;;;;;;4990429;28;95765;-79
2020/12/22 11:26:58;;;;;;;8.37;5.97;;;8.10;92.90;;;;;;4976381;28;96041;-79
2020/12/22 11:29:24;;;;;;;8.07;5.67;;;8.20;92.80;;;;;;4977706;28;92103;-78
2020/12/22 11:31:50;;;;;;;12.47;5.67;;;8.30;92.60;;;;;;4985014;28;93030;-79
2020/12/22 11:34:17;;;;;;;11.13;4.87;;;8.40;92.20;;;;;;4991992;28;94439;-78
2020/12/22 11:36:51;;;;;;;10.10;5.07;;;8.40;91.80;;;;;;4969851;28;94146;-78
2020/12/22 11:39:17;;;;;;;11.67;5.20;;;8.50;91.70;;;;;;4989545;28;92511;-78
2020/12/22 11:41:43;;;;;;;7.53;4.53;;;8.60;91.50;;;;;;4992576;28;92905;-78
2020/12/22 11:44:09;;;;;;;11.33;5.40;;;8.70;91.50;;;;;;4983854;28;96525;-78
2020/12/22 11:46:36;;;;;;;12.40;5.73;;;8.70;91.30;;;;;;4975564;28;96472;-77
2020/12/22 11:49:03;;;;;;;12.40;6.55;;;8.80;91.00;;;;;;4992255;28;92853;-78
2020/12/22 11:51:29;;;;;;;13.80;5.10;;;9.00;90.90;;;;;;4976764;28;91480;-77
2020/12/22 11:53:55;;;;;;;7.33;4.03;;;9.10;90.30;;;;;;4976816;28;92667;-77
2020/12/22 11:56:20;;;;;;;7.43;3.63;;;9.20;89.70;;;;;;4992032;28;92473;-78
2020/12/22 11:58:46;;;;;;;8.18;4.25;;;9.30;89.50;;;;;;4974891;28;93278;-78
2020/12/22 12:01:12;;;;;;;8.93;2.90;;;9.40;88.80;;;;;;4975892;28;92195;-78
2020/12/22 12:03:38;;;;;;;3.15;2.05;;;9.40;88.60;;;;;;4958739;28;94505;-78
2020/12/22 12:06:07;;;;;;;3.63;1.95;;;9.40;88.30;;;;;;4972179;28;93296;-77
2020/12/22 12:08:33;;;;;;;5.68;1.88;;;9.50;87.90;;;;;;4991845;28;92494;-76
2020/12/22 12:10:59;;;;;;;5.50;2.13;;;9.50;87.40;;;;;;4993043;28;92189;-77
2020/12/22 12:13:25;;;;;;;5.40;1.60;;;9.60;86.20;;;;;;4974638;28;92757;-77
2020/12/22 12:15:50;;;;;;;2.40;1.58;;;9.70;86.50;;;;;;4985007;28;96236;-78
2020/12/22 12:18:16;;;;;;;3.97;1.80;;;9.70;86.60;;;;;;4977947;28;92165;-77
2020/12/22 12:20:42;;;;;;;2.92;1.80;;;9.70;86.30;;;;;;4978874;28;92253;-78
2020/12/22 12:23:08;;;;;;;4.25;2.25;;;9.70;86.30;;;;;;4962685;28;96812;-77
2020/12/22 12:25:34;;;;;;;3.03;2.00;;;9.70;86.50;;;;;;4972900;28;95281;-77
2020/12/22 12:27:59;;;;;;;2.78;1.88;;;9.70;85.90;;;;;;4980400;28;92649;-78
2020/12/22 12:30:25;;;;;;;2.53;1.90;;;9.70;85.50;;;;;;4977724;28;92788;-78
2020/12/22 12:32:51;;;;;;;6.93;2.10;;;9.70;85.60;;;;;;4991971;28;92938;-79
2020/12/22 12:35:17;;;;;;;3.53;2.20;;;9.70;85.70;;;;;;4975864;28;96195;-78
2020/12/22 12:37:42;;;;;;;3.60;2.30;;;9.80;85.60;;;;;;4990416;28;92562;-76
2020/12/22 12:40:08;;;;;;;5.30;2.20;;;9.80;85.90;;;;;;4978902;28;91988;-76
2020/12/22 12:42:34;;;;;;;4.32;2.22;;;9.80;85.10;;;;;;4985037;28;96674;-76
2020/12/22 12:45:00;;;;;;;2.83;1.75;;;9.80;84.90;;;;;;4975508;28;95805;-76
2020/12/22 12:47:26;;;;;;;4.63;1.95;;;9.80;84.70;;;;;;4961521;28;92936;-77